Blackshear, Georgia
Current Conditions -  °F | °C
As of 10:35 AM on Sunday 21 Dec 2014 (Local Time) from KAYS Reporting Station
Overcast Overcast  
Wind Chill: 13°   Ceiling: 600
Heat Index: 13°   Visibility: 10mi
Dew Point: 12°   Wind: 6mph
Humidity: 97%   Direction: 60°ENE
Pressure: 30.18"   Gusts: NA
Location:  31.31°N, 82.24°W
Report Text: KAYS 211535Z AUTO 06005KT 10SM OVC006 13/12 A3018 RMK AO2 T01290124
Loading
Personal Weather Stations






























Interactive Weather Map New forecast layout! Learn more

10-Day Weather Forecast

Advertisements
Track Severe Weather on mobile